sensor_id;sensor_type;location;lat;lon;timestamp;temperature;humidity
56322;DHT22;42227;6.376;-10.782;2023-05-14T00:02:22;28.60;94.00
56322;DHT22;42227;6.376;-10.782;2023-05-14T00:04:50;28.30;94.20
56322;DHT22;42227;6.376;-10.782;2023-05-14T00:07:18;28.10;94.90
56322;DHT22;42227;6.376;-10.782;2023-05-14T00:09:47;27.90;96.30
56322;DHT22;42227;6.376;-10.782;2023-05-14T00:12:16;28.10;96.30
56322;DHT22;42227;6.376;-10.782;2023-05-14T00:14:44;28.30;95.80
56322;DHT22;42227;6.376;-10.782;2023-05-14T00:17:15;28.50;94.90
56322;DHT22;42227;6.376;-10.782;2023-05-14T00:19:43;28.40;94.50
56322;DHT22;42227;6.376;-10.782;2023-05-14T00:22:11;28.30;95.40
56322;DHT22;42227;6.376;-10.782;2023-05-14T00:24:40;28.30;95.00
56322;DHT22;42227;6.376;-10.782;2023-05-14T00:27:08;28.00;95.70
56322;DHT22;42227;6.376;-10.782;2023-05-14T00:29:36;27.80;96.20
56322;DHT22;42227;6.376;-10.782;2023-05-14T00:32:05;27.60;96.80
56322;DHT22;42227;6.376;-10.782;2023-05-14T00:34:34;27.80;97.40
56322;DHT22;42227;6.376;-10.782;2023-05-14T00:37:02;28.00;97.10
56322;DHT22;42227;6.376;-10.782;2023-05-14T00:39:30;28.00;96.40
56322;DHT22;42227;6.376;-10.782;2023-05-14T00:41:59;28.00;96.50
56322;DHT22;42227;6.376;-10.782;2023-05-14T00:44:27;28.00;96.40
56322;DHT22;42227;6.376;-10.782;2023-05-14T00:46:56;27.90;96.60
56322;DHT22;42227;6.376;-10.782;2023-05-14T00:49:26;27.90;96.90
56322;DHT22;42227;6.376;-10.782;2023-05-14T00:51:55;28.00;96.50
56322;DHT22;42227;6.376;-10.782;2023-05-14T00:54:24;28.10;96.40
56322;DHT22;42227;6.376;-10.782;2023-05-14T00:56:53;27.90;96.50
56322;DHT22;42227;6.376;-10.782;2023-05-14T00:59:21;27.70;96.70
56322;DHT22;42227;6.376;-10.782;2023-05-14T01:01:50;27.80;97.30
56322;DHT22;42227;6.376;-10.782;2023-05-14T01:04:18;27.80;97.00
56322;DHT22;42227;6.376;-10.782;2023-05-14T01:07:07;27.60;97.20
56322;DHT22;42227;6.376;-10.782;2023-05-14T01:09:48;27.80;97.40
56322;DHT22;42227;6.376;-10.782;2023-05-14T01:12:29;27.60;96.90
56322;DHT22;42227;6.376;-10.782;2023-05-14T01:15:24;27.50;97.60
56322;DHT22;42227;6.376;-10.782;2023-05-14T01:17:58;27.10;98.50
56322;DHT22;42227;6.376;-10.782;2023-05-14T01:20:27;27.00;99.90
56322;DHT22;42227;6.376;-10.782;2023-05-14T01:22:56;27.10;99.90
56322;DHT22;42227;6.376;-10.782;2023-05-14T01:25:25;27.50;99.90
56322;DHT22;42227;6.376;-10.782;2023-05-14T01:28:18;27.60;99.10
56322;DHT22;42227;6.376;-10.782;2023-05-14T01:30:56;27.60;98.70
56322;DHT22;42227;6.376;-10.782;2023-05-14T01:33:27;27.30;98.90
56322;DHT22;42227;6.376;-10.782;2023-05-14T01:35:56;27.10;99.70
56322;DHT22;42227;6.376;-10.782;2023-05-14T01:38:25;27.00;99.90
56322;DHT22;42227;6.376;-10.782;2023-05-14T01:40:54;27.10;99.90
56322;DHT22;42227;6.376;-10.782;2023-05-14T01:43:23;27.20;99.90
56322;DHT22;42227;6.376;-10.782;2023-05-14T01:45:52;26.90;99.90
56322;DHT22;42227;6.376;-10.782;2023-05-14T01:48:21;27.00;99.90
56322;DHT22;42227;6.376;-10.782;2023-05-14T01:50:50;26.90;99.90
56322;DHT22;42227;6.376;-10.782;2023-05-14T01:53:18;26.90;99.90
56322;DHT22;42227;6.376;-10.782;2023-05-14T01:55:46;26.90;99.90
56322;DHT22;42227;6.376;-10.782;2023-05-14T01:58:15;26.90;99.90
56322;DHT22;42227;6.376;-10.782;2023-05-14T02:00:43;27.10;99.90
56322;DHT22;42227;6.376;-10.782;2023-05-14T02:03:11;27.30;99.90
56322;DHT22;42227;6.376;-10.782;2023-05-14T02:05:40;27.40;99.90
56322;DHT22;42227;6.376;-10.782;2023-05-14T02:08:08;27.20;99.40
56322;DHT22;42227;6.376;-10.782;2023-05-14T02:10:36;26.90;99.90
56322;DHT22;42227;6.376;-10.782;2023-05-14T02:13:05;26.70;99.90
56322;DHT22;42227;6.376;-10.782;2023-05-14T02:15:33;26.60;99.90
56322;DHT22;42227;6.376;-10.782;2023-05-14T02:18:01;27.00;99.90
56322;DHT22;42227;6.376;-10.782;2023-05-14T02:20:30;27.10;99.90
56322;DHT22;42227;6.376;-10.782;2023-05-14T02:22:58;27.20;99.90
56322;DHT22;42227;6.376;-10.782;2023-05-14T02:25:27;27.30;99.90
56322;DHT22;42227;6.376;-10.782;2023-05-14T02:27:55;27.30;99.90
56322;DHT22;42227;6.376;-10.782;2023-05-14T02:30:23;27.30;99.90
56322;DHT22;42227;6.376;-10.782;2023-05-14T02:32:52;27.00;99.90
56322;DHT22;42227;6.376;-10.782;2023-05-14T02:35:20;26.90;99.90
56322;DHT22;42227;6.376;-10.782;2023-05-14T02:37:49;26.80;99.90
56322;DHT22;42227;6.376;-10.782;2023-05-14T02:40:17;26.80;99.90
56322;DHT22;42227;6.376;-10.782;2023-05-14T02:42:45;26.70;99.90
56322;DHT22;42227;6.376;-10.782;2023-05-14T02:45:14;26.70;99.90
56322;DHT22;42227;6.376;-10.782;2023-05-14T02:47:42;26.50;99.90
56322;DHT22;42227;6.376;-10.782;2023-05-14T02:50:11;26.80;99.90
56322;DHT22;42227;6.376;-10.782;2023-05-14T02:52:39;26.80;99.90
56322;DHT22;42227;6.376;-10.782;2023-05-14T02:55:07;26.80;99.90
56322;DHT22;42227;6.376;-10.782;2023-05-14T02:57:39;26.80;99.90
56322;DHT22;42227;6.376;-10.782;2023-05-14T03:00:08;26.80;99.90
56322;DHT22;42227;6.376;-10.782;2023-05-14T03:02:37;27.20;99.90
56322;DHT22;42227;6.376;-10.782;2023-05-14T03:05:06;27.50;99.90
56322;DHT22;42227;6.376;-10.782;2023-05-14T03:07:34;27.40;99.90
56322;DHT22;42227;6.376;-10.782;2023-05-14T03:10:03;27.50;99.90
56322;DHT22;42227;6.376;-10.782;2023-05-14T03:12:31;27.30;99.90
56322;DHT22;42227;6.376;-10.782;2023-05-14T03:14:59;27.20;99.90
56322;DHT22;42227;6.376;-10.782;2023-05-14T03:17:28;27.10;99.90
56322;DHT22;42227;6.376;-10.782;2023-05-14T03:19:56;27.00;99.90
56322;DHT22;42227;6.376;-10.782;2023-05-14T03:22:26;27.10;99.90
56322;DHT22;42227;6.376;-10.782;2023-05-14T03:24:54;27.20;99.90
56322;DHT22;42227;6.376;-10.782;2023-05-14T03:27:22;27.20;99.90
56322;DHT22;42227;6.376;-10.782;2023-05-14T03:29:51;27.10;99.90
56322;DHT22;42227;6.376;-10.782;2023-05-14T03:32:19;27.00;99.90
56322;DHT22;42227;6.376;-10.782;2023-05-14T03:34:47;27.00;99.90
56322;DHT22;42227;6.376;-10.782;2023-05-14T03:37:15;27.10;99.90
56322;DHT22;42227;6.376;-10.782;2023-05-14T03:39:44;27.20;99.90
56322;DHT22;42227;6.376;-10.782;2023-05-14T03:42:12;27.20;99.90
56322;DHT22;42227;6.376;-10.782;2023-05-14T03:44:40;27.40;99.90
56322;DHT22;42227;6.376;-10.782;2023-05-14T03:47:09;27.50;99.90
56322;DHT22;42227;6.376;-10.782;2023-05-14T03:49:37;27.60;99.50
56322;DHT22;42227;6.376;-10.782;2023-05-14T03:52:08;27.40;99.20
56322;DHT22;42227;6.376;-10.782;2023-05-14T03:54:36;27.20;99.60
56322;DHT22;42227;6.376;-10.782;2023-05-14T03:57:04;27.10;99.90
56322;DHT22;42227;6.376;-10.782;2023-05-14T03:59:33;27.20;99.90
56322;DHT22;42227;6.376;-10.782;2023-05-14T04:02:01;27.50;99.90
56322;DHT22;42227;6.376;-10.782;2023-05-14T04:04:29;27.60;99.50
56322;DHT22;42227;6.376;-10.782;2023-05-14T04:06:57;27.60;98.90
56322;DHT22;42227;6.376;-10.782;2023-05-14T04:09:28;27.40;99.00
56322;DHT22;42227;6.376;-10.782;2023-05-14T04:11:56;27.20;99.60
56322;DHT22;42227;6.376;-10.782;2023-05-14T04:14:24;27.00;99.90
56322;DHT22;42227;6.376;-10.782;2023-05-14T04:16:52;26.90;99.90
56322;DHT22;42227;6.376;-10.782;2023-05-14T04:19:21;27.10;99.90
56322;DHT22;42227;6.376;-10.782;2023-05-14T04:21:49;27.20;99.90
56322;DHT22;42227;6.376;-10.782;2023-05-14T04:24:17;27.40;99.90
56322;DHT22;42227;6.376;-10.782;2023-05-14T04:26:45;27.30;99.50
56322;DHT22;42227;6.376;-10.782;2023-05-14T04:29:13;27.10;99.90
56322;DHT22;42227;6.376;-10.782;2023-05-14T04:31:42;26.90;99.90
56322;DHT22;42227;6.376;-10.782;2023-05-14T04:34:11;26.80;99.90
56322;DHT22;42227;6.376;-10.782;2023-05-14T04:36:39;26.80;99.90
56322;DHT22;42227;6.376;-10.782;2023-05-14T04:39:07;27.00;99.90
56322;DHT22;42227;6.376;-10.782;2023-05-14T04:41:35;27.10;99.90
56322;DHT22;42227;6.376;-10.782;2023-05-14T04:44:04;27.20;99.90
56322;DHT22;42227;6.376;-10.782;2023-05-14T04:46:32;27.20;99.90
56322;DHT22;42227;6.376;-10.782;2023-05-14T04:49:00;27.10;99.90
56322;DHT22;42227;6.376;-10.782;2023-05-14T04:51:29;26.90;99.90
56322;DHT22;42227;6.376;-10.782;2023-05-14T04:53:57;26.90;99.90
56322;DHT22;42227;6.376;-10.782;2023-05-14T04:56:25;27.00;99.90
56322;DHT22;42227;6.376;-10.782;2023-05-14T04:58:56;27.20;99.90
56322;DHT22;42227;6.376;-10.782;2023-05-14T05:01:24;27.20;99.90
56322;DHT22;42227;6.376;-10.782;2023-05-14T05:03:52;27.40;99.70
56322;DHT22;42227;6.376;-10.782;2023-05-14T05:06:21;27.10;99.40
56322;DHT22;42227;6.376;-10.782;2023-05-14T05:08:49;26.90;99.90
56322;DHT22;42227;6.376;-10.782;2023-05-14T05:11:20;26.80;99.90
56322;DHT22;42227;6.376;-10.782;2023-05-14T05:13:49;26.80;99.90
56322;DHT22;42227;6.376;-10.782;2023-05-14T05:16:17;27.00;99.90
56322;DHT22;42227;6.376;-10.782;2023-05-14T05:18:46;27.20;99.90
56322;DHT22;42227;6.376;-10.782;2023-05-14T05:21:14;27.30;99.90
56322;DHT22;42227;6.376;-10.782;2023-05-14T05:23:42;27.40;99.40
56322;DHT22;42227;6.376;-10.782;2023-05-14T05:26:10;27.20;99.20
56322;DHT22;42227;6.376;-10.782;2023-05-14T05:28:39;27.00;99.60
56322;DHT22;42227;6.376;-10.782;2023-05-14T05:31:07;26.80;99.90
56322;DHT22;42227;6.376;-10.782;2023-05-14T05:33:35;26.70;99.90
56322;DHT22;42227;6.376;-10.782;2023-05-14T05:36:03;26.90;99.90
56322;DHT22;42227;6.376;-10.782;2023-05-14T05:38:32;27.10;99.90
56322;DHT22;42227;6.376;-10.782;2023-05-14T05:41:00;27.30;99.70
56322;DHT22;42227;6.376;-10.782;2023-05-14T05:43:28;27.40;99.00
56322;DHT22;42227;6.376;-10.782;2023-05-14T05:45:56;27.20;98.80
56322;DHT22;42227;6.376;-10.782;2023-05-14T05:48:25;27.00;99.30
56322;DHT22;42227;6.376;-10.782;2023-05-14T05:50:55;26.80;99.70
56322;DHT22;42227;6.376;-10.782;2023-05-14T05:53:23;26.80;99.90
56322;DHT22;42227;6.376;-10.782;2023-05-14T05:55:51;27.10;99.90
56322;DHT22;42227;6.376;-10.782;2023-05-14T05:58:19;27.20;99.40
56322;DHT22;42227;6.376;-10.782;2023-05-14T06:00:48;27.20;99.20
56322;DHT22;42227;6.376;-10.782;2023-05-14T06:03:16;27.20;98.80
56322;DHT22;42227;6.376;-10.782;2023-05-14T06:05:44;26.90;99.20
56322;DHT22;42227;6.376;-10.782;2023-05-14T06:08:12;26.80;99.80
56322;DHT22;42227;6.376;-10.782;2023-05-14T06:10:41;26.60;99.90
56322;DHT22;42227;6.376;-10.782;2023-05-14T06:13:09;26.70;99.90
56322;DHT22;42227;6.376;-10.782;2023-05-14T06:15:37;26.90;99.90
56322;DHT22;42227;6.376;-10.782;2023-05-14T06:18:05;27.00;99.90
56322;DHT22;42227;6.376;-10.782;2023-05-14T06:20:34;27.10;99.80
56322;DHT22;42227;6.376;-10.782;2023-05-14T06:23:02;26.90;99.50
56322;DHT22;42227;6.376;-10.782;2023-05-14T06:25:30;26.80;99.80
56322;DHT22;42227;6.376;-10.782;2023-05-14T06:27:58;26.70;99.90
56322;DHT22;42227;6.376;-10.782;2023-05-14T06:30:27;26.70;99.90
56322;DHT22;42227;6.376;-10.782;2023-05-14T06:32:55;26.90;99.90
56322;DHT22;42227;6.376;-10.782;2023-05-14T06:35:23;27.20;99.70
56322;DHT22;42227;6.376;-10.782;2023-05-14T06:37:51;27.20;98.90
56322;DHT22;42227;6.376;-10.782;2023-05-14T06:40:20;27.20;98.50
56322;DHT22;42227;6.376;-10.782;2023-05-14T06:42:49;26.90;99.00
56322;DHT22;42227;6.376;-10.782;2023-05-14T06:45:17;26.90;99.40
56322;DHT22;42227;6.376;-10.782;2023-05-14T06:47:46;27.10;99.50
56322;DHT22;42227;6.376;-10.782;2023-05-14T06:50:14;27.40;98.80
56322;DHT22;42227;6.376;-10.782;2023-05-14T06:52:42;27.50;98.00
56322;DHT22;42227;6.376;-10.782;2023-05-14T06:55:10;27.30;97.70
56322;DHT22;42227;6.376;-10.782;2023-05-14T06:57:42;27.20;98.10
56322;DHT22;42227;6.376;-10.782;2023-05-14T07:00:11;27.20;98.30
56322;DHT22;42227;6.376;-10.782;2023-05-14T07:02:39;27.20;98.40
56322;DHT22;42227;6.376;-10.782;2023-05-14T07:05:08;27.30;98.40
56322;DHT22;42227;6.376;-10.782;2023-05-14T07:07:36;27.70;98.10
56322;DHT22;42227;6.376;-10.782;2023-05-14T07:10:05;28.20;96.70
56322;DHT22;42227;6.376;-10.782;2023-05-14T07:12:33;28.70;94.90
56322;DHT22;42227;6.376;-10.782;2023-05-14T07:15:01;28.60;94.40
56322;DHT22;42227;6.376;-10.782;2023-05-14T07:17:30;28.40;94.40
56322;DHT22;42227;6.376;-10.782;2023-05-14T07:19:58;28.20;94.80
56322;DHT22;42227;6.376;-10.782;2023-05-14T07:22:26;28.10;95.20
56322;DHT22;42227;6.376;-10.782;2023-05-14T07:24:54;28.50;94.60
56322;DHT22;42227;6.376;-10.782;2023-05-14T07:27:23;28.90;93.30
56322;DHT22;42227;6.376;-10.782;2023-05-14T07:29:51;29.10;92.60
56322;DHT22;42227;6.376;-10.782;2023-05-14T07:32:19;28.90;92.60
56322;DHT22;42227;6.376;-10.782;2023-05-14T07:34:47;29.00;92.90
56322;DHT22;42227;6.376;-10.782;2023-05-14T07:37:16;29.10;92.30
56322;DHT22;42227;6.376;-10.782;2023-05-14T07:39:44;29.30;92.00
56322;DHT22;42227;6.376;-10.782;2023-05-14T07:42:12;29.80;90.90
56322;DHT22;42227;6.376;-10.782;2023-05-14T07:44:51;29.90;90.40
56322;DHT22;42227;6.376;-10.782;2023-05-14T07:47:19;29.90;88.30
56322;DHT22;42227;6.376;-10.782;2023-05-14T07:49:47;29.70;90.30
56322;DHT22;42227;6.376;-10.782;2023-05-14T07:52:16;29.80;89.70
56322;DHT22;42227;6.376;-10.782;2023-05-14T07:54:44;29.90;89.60
56322;DHT22;42227;6.376;-10.782;2023-05-14T07:57:13;30.10;89.40
56322;DHT22;42227;6.376;-10.782;2023-05-14T07:59:42;30.50;86.40
56322;DHT22;42227;6.376;-10.782;2023-05-14T08:02:10;31.30;81.60
56322;DHT22;42227;6.376;-10.782;2023-05-14T08:04:38;32.20;73.80
56322;DHT22;42227;6.376;-10.782;2023-05-14T08:07:07;32.80;71.70
56322;DHT22;42227;6.376;-10.782;2023-05-14T08:09:38;34.00;63.60
56322;DHT22;42227;6.376;-10.782;2023-05-14T08:12:07;35.00;53.20
56322;DHT22;42227;6.376;-10.782;2023-05-14T08:14:35;35.80;46.70
56322;DHT22;42227;6.376;-10.782;2023-05-14T08:17:03;38.00;30.00
56322;DHT22;42227;6.376;-10.782;2023-05-14T08:19:32;39.20;21.50
56322;DHT22;42227;6.376;-10.782;2023-05-14T08:22:00;39.90;14.80
56322;DHT22;42227;6.376;-10.782;2023-05-14T08:24:28;39.40;14.90
56322;DHT22;42227;6.376;-10.782;2023-05-14T08:26:57;39.30;15.90
56322;DHT22;42227;6.376;-10.782;2023-05-14T08:29:25;39.70;13.40
56322;DHT22;42227;6.376;-10.782;2023-05-14T08:31:54;39.70;12.90
56322;DHT22;42227;6.376;-10.782;2023-05-14T08:34:26;40.40;10.50
56322;DHT22;42227;6.376;-10.782;2023-05-14T08:36:54;41.40;6.30
56322;DHT22;42227;6.376;-10.782;2023-05-14T08:39:22;42.10;2.70
56322;DHT22;42227;6.376;-10.782;2023-05-14T08:41:51;40.70;7.30
56322;DHT22;42227;6.376;-10.782;2023-05-14T08:44:22;40.40;9.50
56322;DHT22;42227;6.376;-10.782;2023-05-14T08:46:54;40.70;6.90
56322;DHT22;42227;6.376;-10.782;2023-05-14T08:49:32;40.60;6.50
56322;DHT22;42227;6.376;-10.782;2023-05-14T08:52:04;38.90;13.40
56322;DHT22;42227;6.376;-10.782;2023-05-14T08:54:32;39.70;12.90
56322;DHT22;42227;6.376;-10.782;2023-05-14T08:57:03;41.00;6.20
56322;DHT22;42227;6.376;-10.782;2023-05-14T08:59:31;40.90;7.60
56322;DHT22;42227;6.376;-10.782;2023-05-14T09:02:01;39.90;8.30
56322;DHT22;42227;6.376;-10.782;2023-05-14T09:04:30;39.70;15.70
56322;DHT22;42227;6.376;-10.782;2023-05-14T09:07:00;39.00;16.90
56322;DHT22;42227;6.376;-10.782;2023-05-14T09:11:26;40.50;9.90
56322;DHT22;42227;6.376;-10.782;2023-05-14T09:13:54;38.40;17.90
56322;DHT22;42227;6.376;-10.782;2023-05-14T09:16:30;38.20;25.50
56322;DHT22;42227;6.376;-10.782;2023-05-14T09:18:59;40.60;13.80
56322;DHT22;42227;6.376;-10.782;2023-05-14T09:21:28;41.80;6.80
56322;DHT22;42227;6.376;-10.782;2023-05-14T09:24:00;42.30;3.80
56322;DHT22;42227;6.376;-10.782;2023-05-14T09:26:31;42.30;1.30
56322;DHT22;42227;6.376;-10.782;2023-05-14T09:29:00;42.30;1.00
56322;DHT22;42227;6.376;-10.782;2023-05-14T09:31:30;42.10;2.00
56322;DHT22;42227;6.376;-10.782;2023-05-14T09:44:08;41.70;1.00
56322;DHT22;42227;6.376;-10.782;2023-05-14T09:46:37;38.70;8.80
56322;DHT22;42227;6.376;-10.782;2023-05-14T09:49:05;37.30;23.70
56322;DHT22;42227;6.376;-10.782;2023-05-14T09:51:33;37.20;22.30
56322;DHT22;42227;6.376;-10.782;2023-05-14T09:54:03;36.40;29.20
56322;DHT22;42227;6.376;-10.782;2023-05-14T09:56:32;36.70;25.00
56322;DHT22;42227;6.376;-10.782;2023-05-14T09:59:02;36.50;28.30
56322;DHT22;42227;6.376;-10.782;2023-05-14T10:01:31;36.50;27.30
56322;DHT22;42227;6.376;-10.782;2023-05-14T10:04:02;36.00;30.90
56322;DHT22;42227;6.376;-10.782;2023-05-14T10:06:35;36.40;27.00
56322;DHT22;42227;6.376;-10.782;2023-05-14T10:09:09;36.80;26.30
56322;DHT22;42227;6.376;-10.782;2023-05-14T10:11:42;36.50;26.40
56322;DHT22;42227;6.376;-10.782;2023-05-14T10:14:23;36.10;32.20
56322;DHT22;42227;6.376;-10.782;2023-05-14T10:16:52;36.10;32.00
56322;DHT22;42227;6.376;-10.782;2023-05-14T10:19:32;36.10;28.90
56322;DHT22;42227;6.376;-10.782;2023-05-14T10:22:06;35.80;33.70
56322;DHT22;42227;6.376;-10.782;2023-05-14T10:24:35;36.10;29.40
56322;DHT22;42227;6.376;-10.782;2023-05-14T10:27:04;35.90;36.20
56322;DHT22;42227;6.376;-10.782;2023-05-14T10:29:34;35.50;37.30
56322;DHT22;42227;6.376;-10.782;2023-05-14T10:32:04;35.60;36.90
56322;DHT22;42227;6.376;-10.782;2023-05-14T10:34:42;35.30;38.00
56322;DHT22;42227;6.376;-10.782;2023-05-14T10:37:26;35.50;37.90
56322;DHT22;42227;6.376;-10.782;2023-05-14T10:40:03;35.20;40.70
56322;DHT22;42227;6.376;-10.782;2023-05-14T10:42:34;35.00;40.20
56322;DHT22;42227;6.376;-10.782;2023-05-14T10:45:11;35.30;41.70
56322;DHT22;42227;6.376;-10.782;2023-05-14T10:47:45;35.80;34.40
56322;DHT22;42227;6.376;-10.782;2023-05-14T10:50:15;35.90;39.20
56322;DHT22;42227;6.376;-10.782;2023-05-14T10:52:44;36.20;34.30
56322;DHT22;42227;6.376;-10.782;2023-05-14T10:55:14;35.90;40.30
56322;DHT22;42227;6.376;-10.782;2023-05-14T10:57:44;35.10;41.30
56322;DHT22;42227;6.376;-10.782;2023-05-14T11:00:13;35.30;43.80
56322;DHT22;42227;6.376;-10.782;2023-05-14T11:02:44;35.20;44.30
56322;DHT22;42227;6.376;-10.782;2023-05-14T11:05:14;35.30;43.50
56322;DHT22;42227;6.376;-10.782;2023-05-14T11:07:47;34.80;41.70
56322;DHT22;42227;6.376;-10.782;2023-05-14T11:10:18;34.70;45.00
56322;DHT22;42227;6.376;-10.782;2023-05-14T11:12:48;35.00;43.50
56322;DHT22;42227;6.376;-10.782;2023-05-14T11:15:21;35.40;44.50
56322;DHT22;42227;6.376;-10.782;2023-05-14T11:17:51;35.70;38.50
56322;DHT22;42227;6.376;-10.782;2023-05-14T11:20:20;35.60;42.30
56322;DHT22;42227;6.376;-10.782;2023-05-14T11:22:49;35.60;38.80
56322;DHT22;42227;6.376;-10.782;2023-05-14T11:25:17;35.00;43.20
56322;DHT22;42227;6.376;-10.782;2023-05-14T11:27:46;35.00;43.50
56322;DHT22;42227;6.376;-10.782;2023-05-14T11:30:18;35.30;49.70
56322;DHT22;42227;6.376;-10.782;2023-05-14T11:32:48;35.40;44.10
56322;DHT22;42227;6.376;-10.782;2023-05-14T11:35:18;35.90;43.90
56322;DHT22;42227;6.376;-10.782;2023-05-14T11:37:50;36.00;40.00
56322;DHT22;42227;6.376;-10.782;2023-05-14T11:40:19;36.20;40.00
56322;DHT22;42227;6.376;-10.782;2023-05-14T11:42:50;36.00;40.80
56322;DHT22;42227;6.376;-10.782;2023-05-14T11:45:27;36.30;40.00
56322;DHT22;42227;6.376;-10.782;2023-05-14T11:47:56;35.80;38.30
56322;DHT22;42227;6.376;-10.782;2023-05-14T11:50:24;35.00;44.80
56322;DHT22;42227;6.376;-10.782;2023-05-14T11:52:56;35.10;46.60
56322;DHT22;42227;6.376;-10.782;2023-05-14T11:55:24;35.30;43.80
56322;DHT22;42227;6.376;-10.782;2023-05-14T11:57:52;35.40;42.80
56322;DHT22;42227;6.376;-10.782;2023-05-14T12:00:21;35.10;48.20
56322;DHT22;42227;6.376;-10.782;2023-05-14T12:02:49;35.10;51.40
56322;DHT22;42227;6.376;-10.782;2023-05-14T12:05:19;35.00;47.70
56322;DHT22;42227;6.376;-10.782;2023-05-14T12:07:47;35.20;48.00
56322;DHT22;42227;6.376;-10.782;2023-05-14T12:10:15;35.60;45.90
56322;DHT22;42227;6.376;-10.782;2023-05-14T12:12:46;35.80;47.00
56322;DHT22;42227;6.376;-10.782;2023-05-14T12:15:15;35.60;48.00
56322;DHT22;42227;6.376;-10.782;2023-05-14T12:17:53;35.30;46.50
56322;DHT22;42227;6.376;-10.782;2023-05-14T12:20:23;35.20;45.20
56322;DHT22;42227;6.376;-10.782;2023-05-14T12:22:52;35.30;44.10
56322;DHT22;42227;6.376;-10.782;2023-05-14T12:25:20;35.20;49.40
56322;DHT22;42227;6.376;-10.782;2023-05-14T12:27:48;34.60;47.10
56322;DHT22;42227;6.376;-10.782;2023-05-14T12:30:17;34.70;50.10
56322;DHT22;42227;6.376;-10.782;2023-05-14T12:32:48;34.40;48.20
56322;DHT22;42227;6.376;-10.782;2023-05-14T12:35:16;34.10;53.50
56322;DHT22;42227;6.376;-10.782;2023-05-14T12:37:45;34.00;57.50
56322;DHT22;42227;6.376;-10.782;2023-05-14T12:40:13;34.20;57.80
56322;DHT22;42227;6.376;-10.782;2023-05-14T12:42:41;34.60;62.60
56322;DHT22;42227;6.376;-10.782;2023-05-14T12:45:10;34.90;56.80
56322;DHT22;42227;6.376;-10.782;2023-05-14T12:47:39;34.90;48.10
56322;DHT22;42227;6.376;-10.782;2023-05-14T12:50:07;34.70;51.50
56322;DHT22;42227;6.376;-10.782;2023-05-14T12:52:36;34.30;51.40
56322;DHT22;42227;6.376;-10.782;2023-05-14T12:55:07;33.50;53.80
56322;DHT22;42227;6.376;-10.782;2023-05-14T12:57:37;33.10;57.60
56322;DHT22;42227;6.376;-10.782;2023-05-14T13:00:07;33.40;56.80
56322;DHT22;42227;6.376;-10.782;2023-05-14T13:02:37;33.40;58.50
56322;DHT22;42227;6.376;-10.782;2023-05-14T13:05:13;33.80;62.20
56322;DHT22;42227;6.376;-10.782;2023-05-14T13:07:41;34.10;59.00
56322;DHT22;42227;6.376;-10.782;2023-05-14T13:10:09;33.60;58.00
56322;DHT22;42227;6.376;-10.782;2023-05-14T13:12:38;33.60;61.40
56322;DHT22;42227;6.376;-10.782;2023-05-14T13:15:07;33.80;61.50
56322;DHT22;42227;6.376;-10.782;2023-05-14T13:17:35;33.90;57.60
56322;DHT22;42227;6.376;-10.782;2023-05-14T13:20:04;34.00;56.60
56322;DHT22;42227;6.376;-10.782;2023-05-14T13:22:33;34.40;56.90
56322;DHT22;42227;6.376;-10.782;2023-05-14T13:25:01;34.40;56.90
56322;DHT22;42227;6.376;-10.782;2023-05-14T13:27:29;33.70;58.80
56322;DHT22;42227;6.376;-10.782;2023-05-14T13:29:58;33.50;61.30
56322;DHT22;42227;6.376;-10.782;2023-05-14T13:32:26;33.60;60.60
56322;DHT22;42227;6.376;-10.782;2023-05-14T13:34:54;34.00;57.70
56322;DHT22;42227;6.376;-10.782;2023-05-14T13:37:23;34.00;58.00
56322;DHT22;42227;6.376;-10.782;2023-05-14T13:39:52;33.90;58.90
56322;DHT22;42227;6.376;-10.782;2023-05-14T13:42:20;34.10;59.30
56322;DHT22;42227;6.376;-10.782;2023-05-14T13:44:49;34.10;58.40
56322;DHT22;42227;6.376;-10.782;2023-05-14T13:47:17;34.30;56.10
56322;DHT22;42227;6.376;-10.782;2023-05-14T13:49:45;34.70;52.80
56322;DHT22;42227;6.376;-10.782;2023-05-14T13:52:13;34.00;53.70
56322;DHT22;42227;6.376;-10.782;2023-05-14T13:54:42;34.10;58.50
56322;DHT22;42227;6.376;-10.782;2023-05-14T13:57:10;34.70;54.50
56322;DHT22;42227;6.376;-10.782;2023-05-14T13:59:38;34.80;54.00
56322;DHT22;42227;6.376;-10.782;2023-05-14T14:02:07;34.70;50.30
56322;DHT22;42227;6.376;-10.782;2023-05-14T14:04:35;34.80;52.00
56322;DHT22;42227;6.376;-10.782;2023-05-14T14:07:04;34.40;52.60
56322;DHT22;42227;6.376;-10.782;2023-05-14T14:09:32;34.20;52.10
56322;DHT22;42227;6.376;-10.782;2023-05-14T14:12:02;34.10;59.90
56322;DHT22;42227;6.376;-10.782;2023-05-14T14:14:31;33.90;57.90
56322;DHT22;42227;6.376;-10.782;2023-05-14T14:16:59;33.70;58.20
56322;DHT22;42227;6.376;-10.782;2023-05-14T14:19:27;33.70;59.50
56322;DHT22;42227;6.376;-10.782;2023-05-14T14:21:56;33.70;59.10
56322;DHT22;42227;6.376;-10.782;2023-05-14T14:24:24;33.80;58.40
56322;DHT22;42227;6.376;-10.782;2023-05-14T14:26:52;34.10;59.80
56322;DHT22;42227;6.376;-10.782;2023-05-14T14:29:21;34.30;55.00
56322;DHT22;42227;6.376;-10.782;2023-05-14T14:31:49;33.50;55.80
56322;DHT22;42227;6.376;-10.782;2023-05-14T14:34:17;33.30;59.70
56322;DHT22;42227;6.376;-10.782;2023-05-14T14:36:45;33.40;60.30
56322;DHT22;42227;6.376;-10.782;2023-05-14T14:39:14;33.30;60.80
56322;DHT22;42227;6.376;-10.782;2023-05-14T14:41:42;33.10;60.80
56322;DHT22;42227;6.376;-10.782;2023-05-14T14:44:10;33.20;65.70
56322;DHT22;42227;6.376;-10.782;2023-05-14T14:46:39;33.10;65.60
56322;DHT22;42227;6.376;-10.782;2023-05-14T14:49:07;33.10;65.30
56322;DHT22;42227;6.376;-10.782;2023-05-14T14:51:35;33.20;64.50
56322;DHT22;42227;6.376;-10.782;2023-05-14T14:54:04;33.20;65.70
56322;DHT22;42227;6.376;-10.782;2023-05-14T14:56:32;33.50;63.50
56322;DHT22;42227;6.376;-10.782;2023-05-14T14:59:01;33.50;64.00
56322;DHT22;42227;6.376;-10.782;2023-05-14T15:01:29;33.30;65.50
56322;DHT22;42227;6.376;-10.782;2023-05-14T15:03:57;33.60;63.70
56322;DHT22;42227;6.376;-10.782;2023-05-14T15:06:26;33.90;60.50
56322;DHT22;42227;6.376;-10.782;2023-05-14T15:08:54;33.90;61.40
56322;DHT22;42227;6.376;-10.782;2023-05-14T15:11:28;33.40;61.20
56322;DHT22;42227;6.376;-10.782;2023-05-14T15:13:57;33.70;60.30
56322;DHT22;42227;6.376;-10.782;2023-05-14T15:16:25;33.40;59.40
56322;DHT22;42227;6.376;-10.782;2023-05-14T15:19:01;33.10;60.30
56322;DHT22;42227;6.376;-10.782;2023-05-14T15:21:29;33.40;60.10
56322;DHT22;42227;6.376;-10.782;2023-05-14T15:23:57;33.00;54.00
56322;DHT22;42227;6.376;-10.782;2023-05-14T15:26:26;33.20;54.00
56322;DHT22;42227;6.376;-10.782;2023-05-14T15:28:54;33.10;55.00
56322;DHT22;42227;6.376;-10.782;2023-05-14T15:31:22;33.00;56.40
56322;DHT22;42227;6.376;-10.782;2023-05-14T15:33:52;33.10;58.50
56322;DHT22;42227;6.376;-10.782;2023-05-14T15:36:20;33.10;55.40
56322;DHT22;42227;6.376;-10.782;2023-05-14T15:38:49;33.40;57.30
56322;DHT22;42227;6.376;-10.782;2023-05-14T15:41:17;33.50;53.70
56322;DHT22;42227;6.376;-10.782;2023-05-14T15:43:46;33.40;56.30